sensor_id;sensor_type;location;lat;lon;timestamp;P1;durP1;ratioP1;P2;durP2;ratioP2
38089;SDS011;23904;52.322;10.232;2022-10-22T00:00:11;18.88;;;14.57;;
38089;SDS011;23904;52.322;10.232;2022-10-22T00:02:40;23.10;;;14.60;;
38089;SDS011;23904;52.322;10.232;2022-10-22T00:05:06;20.58;;;14.55;;
38089;SDS011;23904;52.322;10.232;2022-10-22T00:07:33;22.63;;;13.35;;
38089;SDS011;23904;52.322;10.232;2022-10-22T00:09:59;21.90;;;14.38;;
38089;SDS011;23904;52.322;10.232;2022-10-22T00:12:25;19.65;;;13.65;;
38089;SDS011;23904;52.322;10.232;2022-10-22T00:14:51;17.58;;;13.43;;
38089;SDS011;23904;52.322;10.232;2022-10-22T00:17:17;18.95;;;13.95;;
38089;SDS011;23904;52.322;10.232;2022-10-22T00:19:43;20.67;;;13.85;;
38089;SDS011;23904;52.322;10.232;2022-10-22T00:22:09;22.35;;;14.45;;
38089;SDS011;23904;52.322;10.232;2022-10-22T00:24:36;17.02;;;12.95;;
38089;SDS011;23904;52.322;10.232;2022-10-22T00:27:03;16.70;;;13.60;;
38089;SDS011;23904;52.322;10.232;2022-10-22T00:29:30;19.42;;;13.30;;
38089;SDS011;23904;52.322;10.232;2022-10-22T00:31:56;16.92;;;13.45;;
38089;SDS011;23904;52.322;10.232;2022-10-22T00:34:22;18.25;;;13.07;;
38089;SDS011;23904;52.322;10.232;2022-10-22T00:36:48;15.95;;;12.18;;
38089;SDS011;23904;52.322;10.232;2022-10-22T00:39:16;16.92;;;13.77;;
38089;SDS011;23904;52.322;10.232;2022-10-22T00:41:45;20.42;;;11.90;;
38089;SDS011;23904;52.322;10.232;2022-10-22T00:47:53;15.95;;;11.82;;
38089;SDS011;23904;52.322;10.232;2022-10-22T00:53:36;22.98;;;12.63;;
38089;SDS011;23904;52.322;10.232;2022-10-22T00:56:06;21.35;;;13.60;;
38089;SDS011;23904;52.322;10.232;2022-10-22T00:58:34;20.50;;;12.20;;
38089;SDS011;23904;52.322;10.232;2022-10-22T01:01:04;21.17;;;12.15;;
38089;SDS011;23904;52.322;10.232;2022-10-22T01:03:32;18.55;;;12.82;;
38089;SDS011;23904;52.322;10.232;2022-10-22T01:05:59;18.40;;;12.68;;
38089;SDS011;23904;52.322;10.232;2022-10-22T01:16:54;17.13;;;11.40;;
38089;SDS011;23904;52.322;10.232;2022-10-22T01:22:56;15.43;;;11.70;;
38089;SDS011;23904;52.322;10.232;2022-10-22T01:25:36;16.17;;;11.93;;
38089;SDS011;23904;52.322;10.232;2022-10-22T01:29:00;15.18;;;11.20;;
38089;SDS011;23904;52.322;10.232;2022-10-22T01:31:24;14.20;;;11.85;;
38089;SDS011;23904;52.322;10.232;2022-10-22T01:33:59;14.38;;;10.52;;
38089;SDS011;23904;52.322;10.232;2022-10-22T01:36:28;17.92;;;12.48;;
38089;SDS011;23904;52.322;10.232;2022-10-22T01:38:55;21.38;;;12.52;;
38089;SDS011;23904;52.322;10.232;2022-10-22T01:41:26;16.10;;;12.90;;
38089;SDS011;23904;52.322;10.232;2022-10-22T01:43:52;15.65;;;12.65;;
38089;SDS011;23904;52.322;10.232;2022-10-22T01:46:18;20.95;;;13.25;;
38089;SDS011;23904;52.322;10.232;2022-10-22T01:48:52;19.90;;;12.73;;
38089;SDS011;23904;52.322;10.232;2022-10-22T02:00:00;15.70;;;11.70;;
38089;SDS011;23904;52.322;10.232;2022-10-22T02:08:01;14.27;;;10.93;;
38089;SDS011;23904;52.322;10.232;2022-10-22T02:10:34;14.00;;;11.23;;
38089;SDS011;23904;52.322;10.232;2022-10-22T02:13:04;14.48;;;11.25;;
38089;SDS011;23904;52.322;10.232;2022-10-22T02:15:37;21.08;;;11.75;;
38089;SDS011;23904;52.322;10.232;2022-10-22T02:18:05;14.48;;;11.80;;
38089;SDS011;23904;52.322;10.232;2022-10-22T02:20:34;19.27;;;12.10;;
38089;SDS011;23904;52.322;10.232;2022-10-22T02:23:02;16.55;;;11.38;;
38089;SDS011;23904;52.322;10.232;2022-10-22T02:25:30;17.75;;;12.38;;
38089;SDS011;23904;52.322;10.232;2022-10-22T02:30:47;18.17;;;12.50;;
38089;SDS011;23904;52.322;10.232;2022-10-22T02:33:36;18.15;;;12.93;;
38089;SDS011;23904;52.322;10.232;2022-10-22T02:36:07;14.18;;;12.20;;
38089;SDS011;23904;52.322;10.232;2022-10-22T02:38:33;16.83;;;12.80;;
38089;SDS011;23904;52.322;10.232;2022-10-22T02:41:01;19.10;;;13.20;;
38089;SDS011;23904;52.322;10.232;2022-10-22T02:43:27;19.42;;;14.73;;
38089;SDS011;23904;52.322;10.232;2022-10-22T02:45:53;19.35;;;13.75;;
38089;SDS011;23904;52.322;10.232;2022-10-22T02:48:19;16.60;;;12.98;;
38089;SDS011;23904;52.322;10.232;2022-10-22T02:50:45;17.33;;;13.20;;
38089;SDS011;23904;52.322;10.232;2022-10-22T02:53:10;18.13;;;13.05;;
38089;SDS011;23904;52.322;10.232;2022-10-22T02:55:36;17.60;;;13.60;;
38089;SDS011;23904;52.322;10.232;2022-10-22T02:58:02;20.77;;;13.60;;
38089;SDS011;23904;52.322;10.232;2022-10-22T03:00:27;18.25;;;13.07;;
38089;SDS011;23904;52.322;10.232;2022-10-22T03:02:53;18.60;;;13.27;;
38089;SDS011;23904;52.322;10.232;2022-10-22T03:05:19;17.77;;;13.90;;
38089;SDS011;23904;52.322;10.232;2022-10-22T03:07:44;20.50;;;13.82;;
38089;SDS011;23904;52.322;10.232;2022-10-22T03:10:10;24.48;;;14.43;;
38089;SDS011;23904;52.322;10.232;2022-10-22T03:12:35;19.02;;;12.52;;
38089;SDS011;23904;52.322;10.232;2022-10-22T03:15:01;22.00;;;15.02;;
38089;SDS011;23904;52.322;10.232;2022-10-22T03:17:27;23.88;;;14.13;;
38089;SDS011;23904;52.322;10.232;2022-10-22T03:19:53;18.27;;;13.32;;
38089;SDS011;23904;52.322;10.232;2022-10-22T03:22:22;17.02;;;12.90;;
38089;SDS011;23904;52.322;10.232;2022-10-22T03:24:52;16.90;;;13.15;;
38089;SDS011;23904;52.322;10.232;2022-10-22T03:27:22;18.92;;;13.40;;
38089;SDS011;23904;52.322;10.232;2022-10-22T03:29:50;14.75;;;12.40;;
38089;SDS011;23904;52.322;10.232;2022-10-22T03:32:17;20.38;;;12.57;;
38089;SDS011;23904;52.322;10.232;2022-10-22T03:34:43;17.85;;;13.38;;
38089;SDS011;23904;52.322;10.232;2022-10-22T03:37:08;15.82;;;12.73;;
38089;SDS011;23904;52.322;10.232;2022-10-22T03:39:34;14.52;;;12.30;;
38089;SDS011;23904;52.322;10.232;2022-10-22T03:42:01;15.98;;;11.55;;
38089;SDS011;23904;52.322;10.232;2022-10-22T03:44:28;16.73;;;12.27;;
38089;SDS011;23904;52.322;10.232;2022-10-22T03:46:55;19.05;;;12.98;;
38089;SDS011;23904;52.322;10.232;2022-10-22T03:49:20;19.58;;;12.38;;
38089;SDS011;23904;52.322;10.232;2022-10-22T03:51:46;16.20;;;12.38;;
38089;SDS011;23904;52.322;10.232;2022-10-22T03:54:12;18.27;;;13.15;;
38089;SDS011;23904;52.322;10.232;2022-10-22T03:56:37;19.30;;;14.02;;
38089;SDS011;23904;52.322;10.232;2022-10-22T03:59:03;26.60;;;15.02;;
38089;SDS011;23904;52.322;10.232;2022-10-22T04:01:29;19.15;;;13.63;;
38089;SDS011;23904;52.322;10.232;2022-10-22T04:03:55;23.60;;;14.82;;
38089;SDS011;23904;52.322;10.232;2022-10-22T04:06:21;20.92;;;13.98;;
38089;SDS011;23904;52.322;10.232;2022-10-22T04:08:47;23.55;;;13.77;;
38089;SDS011;23904;52.322;10.232;2022-10-22T04:11:13;16.38;;;13.48;;
38089;SDS011;23904;52.322;10.232;2022-10-22T04:13:40;17.38;;;13.00;;
38089;SDS011;23904;52.322;10.232;2022-10-22T04:18:35;16.75;;;13.55;;
38089;SDS011;23904;52.322;10.232;2022-10-22T04:21:02;17.65;;;12.88;;
38089;SDS011;23904;52.322;10.232;2022-10-22T04:23:29;19.75;;;13.65;;
38089;SDS011;23904;52.322;10.232;2022-10-22T04:25:58;15.18;;;12.65;;
38089;SDS011;23904;52.322;10.232;2022-10-22T04:28:28;15.10;;;12.05;;
38089;SDS011;23904;52.322;10.232;2022-10-22T04:30:54;22.10;;;12.95;;
38089;SDS011;23904;52.322;10.232;2022-10-22T04:33:19;16.23;;;12.00;;
38089;SDS011;23904;52.322;10.232;2022-10-22T04:35:45;16.52;;;12.52;;
38089;SDS011;23904;52.322;10.232;2022-10-22T04:38:11;23.10;;;12.75;;
38089;SDS011;23904;52.322;10.232;2022-10-22T04:40:37;25.67;;;13.57;;
38089;SDS011;23904;52.322;10.232;2022-10-22T04:43:03;28.38;;;13.55;;
38089;SDS011;23904;52.322;10.232;2022-10-22T04:45:29;17.83;;;13.77;;
38089;SDS011;23904;52.322;10.232;2022-10-22T04:47:57;19.20;;;14.77;;
38089;SDS011;23904;52.322;10.232;2022-10-22T04:50:22;20.15;;;13.35;;
38089;SDS011;23904;52.322;10.232;2022-10-22T04:52:48;18.35;;;13.27;;
38089;SDS011;23904;52.322;10.232;2022-10-22T04:55:14;19.52;;;13.68;;
38089;SDS011;23904;52.322;10.232;2022-10-22T04:57:39;17.83;;;12.88;;
38089;SDS011;23904;52.322;10.232;2022-10-22T05:00:05;18.20;;;12.77;;
38089;SDS011;23904;52.322;10.232;2022-10-22T05:02:32;19.55;;;13.77;;
38089;SDS011;23904;52.322;10.232;2022-10-22T05:04:57;18.90;;;13.30;;
38089;SDS011;23904;52.322;10.232;2022-10-22T05:07:23;18.88;;;13.57;;
38089;SDS011;23904;52.322;10.232;2022-10-22T05:09:49;19.83;;;14.65;;
38089;SDS011;23904;52.322;10.232;2022-10-22T05:12:14;19.00;;;14.57;;
38089;SDS011;23904;52.322;10.232;2022-10-22T05:14:40;20.63;;;14.60;;
38089;SDS011;23904;52.322;10.232;2022-10-22T05:17:06;20.30;;;15.48;;
38089;SDS011;23904;52.322;10.232;2022-10-22T05:19:31;21.95;;;15.10;;
38089;SDS011;23904;52.322;10.232;2022-10-22T05:21:58;20.42;;;15.63;;
38089;SDS011;23904;52.322;10.232;2022-10-22T05:24:26;21.55;;;14.50;;
38089;SDS011;23904;52.322;10.232;2022-10-22T05:26:54;21.10;;;14.20;;
38089;SDS011;23904;52.322;10.232;2022-10-22T05:29:24;18.05;;;14.82;;
38089;SDS011;23904;52.322;10.232;2022-10-22T05:31:50;23.33;;;14.18;;
38089;SDS011;23904;52.322;10.232;2022-10-22T05:34:17;22.10;;;14.25;;
38089;SDS011;23904;52.322;10.232;2022-10-22T05:36:43;19.95;;;14.23;;
38089;SDS011;23904;52.322;10.232;2022-10-22T05:39:08;18.00;;;13.85;;
38089;SDS011;23904;52.322;10.232;2022-10-22T05:41:34;19.67;;;15.10;;
38089;SDS011;23904;52.322;10.232;2022-10-22T05:44:00;24.05;;;14.93;;
38089;SDS011;23904;52.322;10.232;2022-10-22T05:46:28;25.23;;;15.20;;
38089;SDS011;23904;52.322;10.232;2022-10-22T05:48:58;20.08;;;14.57;;
38089;SDS011;23904;52.322;10.232;2022-10-22T05:51:27;22.40;;;16.40;;
38089;SDS011;23904;52.322;10.232;2022-10-22T05:53:56;21.30;;;15.05;;
38089;SDS011;23904;52.322;10.232;2022-10-22T05:56:25;23.90;;;17.67;;
38089;SDS011;23904;52.322;10.232;2022-10-22T05:58:52;26.83;;;15.85;;
38089;SDS011;23904;52.322;10.232;2022-10-22T06:01:22;20.60;;;16.15;;
38089;SDS011;23904;52.322;10.232;2022-10-22T06:03:52;24.17;;;16.73;;
38089;SDS011;23904;52.322;10.232;2022-10-22T06:06:32;21.27;;;15.77;;
38089;SDS011;23904;52.322;10.232;2022-10-22T06:09:34;21.45;;;16.20;;
38089;SDS011;23904;52.322;10.232;2022-10-22T06:11:56;20.92;;;15.75;;
38089;SDS011;23904;52.322;10.232;2022-10-22T06:14:22;22.88;;;17.15;;
38089;SDS011;23904;52.322;10.232;2022-10-22T06:16:49;27.33;;;17.67;;
38089;SDS011;23904;52.322;10.232;2022-10-22T06:19:18;23.75;;;17.15;;
38089;SDS011;23904;52.322;10.232;2022-10-22T06:21:46;25.63;;;16.98;;
38089;SDS011;23904;52.322;10.232;2022-10-22T06:24:13;24.40;;;16.65;;
38089;SDS011;23904;52.322;10.232;2022-10-22T06:26:39;24.33;;;17.23;;
38089;SDS011;23904;52.322;10.232;2022-10-22T06:29:05;26.40;;;17.92;;
38089;SDS011;23904;52.322;10.232;2022-10-22T06:31:31;27.00;;;18.20;;
38089;SDS011;23904;52.322;10.232;2022-10-22T06:34:01;29.60;;;18.10;;
38089;SDS011;23904;52.322;10.232;2022-10-22T06:36:33;21.63;;;17.42;;
38089;SDS011;23904;52.322;10.232;2022-10-22T06:38:58;31.15;;;17.77;;
38089;SDS011;23904;52.322;10.232;2022-10-22T06:41:24;25.95;;;16.38;;
38089;SDS011;23904;52.322;10.232;2022-10-22T06:43:50;23.05;;;16.85;;
38089;SDS011;23904;52.322;10.232;2022-10-22T06:46:18;27.98;;;17.15;;
38089;SDS011;23904;52.322;10.232;2022-10-22T06:48:49;25.80;;;16.83;;
38089;SDS011;23904;52.322;10.232;2022-10-22T06:51:23;22.75;;;18.20;;
38089;SDS011;23904;52.322;10.232;2022-10-22T06:53:49;21.05;;;16.33;;
38089;SDS011;23904;52.322;10.232;2022-10-22T06:56:19;24.02;;;17.52;;
38089;SDS011;23904;52.322;10.232;2022-10-22T06:58:48;22.50;;;16.95;;
38089;SDS011;23904;52.322;10.232;2022-10-22T07:01:17;25.05;;;17.42;;
38089;SDS011;23904;52.322;10.232;2022-10-22T07:03:45;31.92;;;18.60;;
38089;SDS011;23904;52.322;10.232;2022-10-22T07:06:12;21.38;;;16.15;;
38089;SDS011;23904;52.322;10.232;2022-10-22T07:08:39;28.00;;;18.83;;
38089;SDS011;23904;52.322;10.232;2022-10-22T07:11:07;25.40;;;18.10;;
38089;SDS011;23904;52.322;10.232;2022-10-22T07:13:38;27.60;;;18.58;;
38089;SDS011;23904;52.322;10.232;2022-10-22T07:16:04;24.55;;;18.13;;
38089;SDS011;23904;52.322;10.232;2022-10-22T07:18:31;24.75;;;17.85;;
38089;SDS011;23904;52.322;10.232;2022-10-22T07:20:58;25.42;;;17.58;;
38089;SDS011;23904;52.322;10.232;2022-10-22T07:23:24;21.25;;;17.45;;
38089;SDS011;23904;52.322;10.232;2022-10-22T07:25:51;21.95;;;17.10;;
38089;SDS011;23904;52.322;10.232;2022-10-22T07:28:17;22.00;;;16.88;;
38089;SDS011;23904;52.322;10.232;2022-10-22T07:30:43;22.13;;;15.70;;
38089;SDS011;23904;52.322;10.232;2022-10-22T07:33:09;28.25;;;17.20;;
38089;SDS011;23904;52.322;10.232;2022-10-22T07:35:36;24.00;;;14.95;;
38089;SDS011;23904;52.322;10.232;2022-10-22T07:38:04;21.75;;;15.18;;
38089;SDS011;23904;52.322;10.232;2022-10-22T07:40:31;20.98;;;15.38;;
38089;SDS011;23904;52.322;10.232;2022-10-22T07:42:57;20.02;;;14.10;;
38089;SDS011;23904;52.322;10.232;2022-10-22T07:45:23;24.85;;;15.45;;
38089;SDS011;23904;52.322;10.232;2022-10-22T07:47:49;22.58;;;14.18;;
38089;SDS011;23904;52.322;10.232;2022-10-22T07:50:15;17.95;;;14.65;;
38089;SDS011;23904;52.322;10.232;2022-10-22T07:52:41;22.25;;;14.52;;
38089;SDS011;23904;52.322;10.232;2022-10-22T07:55:06;21.10;;;14.65;;
38089;SDS011;23904;52.322;10.232;2022-10-22T07:57:33;19.33;;;14.38;;
38089;SDS011;23904;52.322;10.232;2022-10-22T07:59:59;19.15;;;13.85;;
38089;SDS011;23904;52.322;10.232;2022-10-22T08:02:24;21.10;;;12.52;;
38089;SDS011;23904;52.322;10.232;2022-10-22T08:04:50;18.33;;;13.30;;
38089;SDS011;23904;52.322;10.232;2022-10-22T08:07:16;20.10;;;13.68;;
38089;SDS011;23904;52.322;10.232;2022-10-22T08:09:42;15.57;;;12.98;;
38089;SDS011;23904;52.322;10.232;2022-10-22T08:12:08;20.60;;;12.32;;
38089;SDS011;23904;52.322;10.232;2022-10-22T08:14:34;19.15;;;12.60;;
38089;SDS011;23904;52.322;10.232;2022-10-22T08:17:00;15.85;;;12.80;;
38089;SDS011;23904;52.322;10.232;2022-10-22T08:19:25;20.25;;;14.35;;
38089;SDS011;23904;52.322;10.232;2022-10-22T08:21:53;20.00;;;14.25;;
38089;SDS011;23904;52.322;10.232;2022-10-22T08:24:18;21.35;;;13.30;;
38089;SDS011;23904;52.322;10.232;2022-10-22T08:26:44;16.02;;;12.57;;
38089;SDS011;23904;52.322;10.232;2022-10-22T08:29:10;23.02;;;12.52;;
38089;SDS011;23904;52.322;10.232;2022-10-22T08:31:35;16.10;;;11.48;;
38089;SDS011;23904;52.322;10.232;2022-10-22T08:34:01;16.48;;;12.07;;
38089;SDS011;23904;52.322;10.232;2022-10-22T08:36:27;16.10;;;11.73;;
38089;SDS011;23904;52.322;10.232;2022-10-22T08:38:52;19.52;;;11.93;;
38089;SDS011;23904;52.322;10.232;2022-10-22T08:41:19;14.70;;;9.77;;
38089;SDS011;23904;52.322;10.232;2022-10-22T08:49:52;16.20;;;8.55;;
38089;SDS011;23904;52.322;10.232;2022-10-22T08:52:19;11.13;;;8.57;;
38089;SDS011;23904;52.322;10.232;2022-10-22T08:57:37;11.88;;;7.22;;
38089;SDS011;23904;52.322;10.232;2022-10-22T09:00:13;13.88;;;6.97;;
38089;SDS011;23904;52.322;10.232;2022-10-22T09:08:39;8.57;;;5.10;;
38089;SDS011;23904;52.322;10.232;2022-10-22T09:11:15;7.68;;;4.78;;
38089;SDS011;23904;52.322;10.232;2022-10-22T09:13:58;8.23;;;4.35;;
38089;SDS011;23904;52.322;10.232;2022-10-22T09:28:07;7.72;;;3.95;;
38089;SDS011;23904;52.322;10.232;2022-10-22T09:30:34;5.88;;;3.42;;
38089;SDS011;23904;52.322;10.232;2022-10-22T09:35:37;7.88;;;3.72;;
38089;SDS011;23904;52.322;10.232;2022-10-22T09:38:18;9.40;;;4.05;;
38089;SDS011;23904;52.322;10.232;2022-10-22T09:40:48;9.60;;;3.10;;
38089;SDS011;23904;52.322;10.232;2022-10-22T09:43:17;6.72;;;3.50;;
38089;SDS011;23904;52.322;10.232;2022-10-22T09:45:43;5.30;;;3.38;;
38089;SDS011;23904;52.322;10.232;2022-10-22T09:53:18;12.30;;;3.65;;
38089;SDS011;23904;52.322;10.232;2022-10-22T09:55:51;12.73;;;2.88;;
38089;SDS011;23904;52.322;10.232;2022-10-22T09:58:23;13.63;;;2.47;;
38089;SDS011;23904;52.322;10.232;2022-10-22T10:00:51;6.50;;;2.60;;
38089;SDS011;23904;52.322;10.232;2022-10-22T10:03:21;6.15;;;3.03;;
38089;SDS011;23904;52.322;10.232;2022-10-22T10:05:52;8.02;;;2.95;;
38089;SDS011;23904;52.322;10.232;2022-10-22T10:08:21;8.73;;;2.60;;
38089;SDS011;23904;52.322;10.232;2022-10-22T10:16:37;3.55;;;2.00;;
38089;SDS011;23904;52.322;10.232;2022-10-22T10:19:29;4.40;;;2.10;;
38089;SDS011;23904;52.322;10.232;2022-10-22T10:22:18;8.68;;;2.05;;
38089;SDS011;23904;52.322;10.232;2022-10-22T10:30:47;5.22;;;2.33;;
38089;SDS011;23904;52.322;10.232;2022-10-22T10:34:35;5.10;;;2.35;;
38089;SDS011;23904;52.322;10.232;2022-10-22T10:43:12;8.85;;;2.83;;
38089;SDS011;23904;52.322;10.232;2022-10-22T10:48:31;6.70;;;2.92;;
38089;SDS011;23904;52.322;10.232;2022-10-22T10:59:58;8.30;;;2.40;;
38089;SDS011;23904;52.322;10.232;2022-10-22T11:05:51;4.55;;;2.20;;
38089;SDS011;23904;52.322;10.232;2022-10-22T11:08:35;13.85;;;2.85;;
38089;SDS011;23904;52.322;10.232;2022-10-22T11:11:14;6.68;;;2.47;;
38089;SDS011;23904;52.322;10.232;2022-10-22T11:13:59;6.07;;;2.20;;
38089;SDS011;23904;52.322;10.232;2022-10-22T11:16:36;3.72;;;2.45;;
38089;SDS011;23904;52.322;10.232;2022-10-22T11:22:25;7.15;;;2.75;;
38089;SDS011;23904;52.322;10.232;2022-10-22T11:25:05;5.03;;;1.98;;
38089;SDS011;23904;52.322;10.232;2022-10-22T11:28:44;10.15;;;2.97;;
38089;SDS011;23904;52.322;10.232;2022-10-22T11:30:46;6.57;;;2.30;;
38089;SDS011;23904;52.322;10.232;2022-10-22T11:33:21;9.10;;;3.42;;
38089;SDS011;23904;52.322;10.232;2022-10-22T11:35:51;5.72;;;2.35;;
38089;SDS011;23904;52.322;10.232;2022-10-22T11:38:19;13.73;;;2.72;;
38089;SDS011;23904;52.322;10.232;2022-10-22T11:40:51;10.00;;;2.88;;
38089;SDS011;23904;52.322;10.232;2022-10-22T11:51:39;5.15;;;2.55;;
38089;SDS011;23904;52.322;10.232;2022-10-22T12:04:53;8.30;;;3.40;;
38089;SDS011;23904;52.322;10.232;2022-10-22T12:07:34;5.90;;;3.38;;
38089;SDS011;23904;52.322;10.232;2022-10-22T12:10:22;10.20;;;3.95;;
38089;SDS011;23904;52.322;10.232;2022-10-22T12:12:54;7.47;;;2.65;;
38089;SDS011;23904;52.322;10.232;2022-10-22T12:15:29;8.65;;;2.53;;
38089;SDS011;23904;52.322;10.232;2022-10-22T12:17:58;8.63;;;2.60;;
38089;SDS011;23904;52.322;10.232;2022-10-22T12:20:25;9.82;;;3.53;;
38089;SDS011;23904;52.322;10.232;2022-10-22T12:22:52;6.03;;;2.65;;
38089;SDS011;23904;52.322;10.232;2022-10-22T12:25:23;9.38;;;3.65;;
38089;SDS011;23904;52.322;10.232;2022-10-22T12:27:54;7.07;;;2.55;;
38089;SDS011;23904;52.322;10.232;2022-10-22T12:30:24;9.82;;;2.45;;
38089;SDS011;23904;52.322;10.232;2022-10-22T12:32:59;8.60;;;2.60;;
38089;SDS011;23904;52.322;10.232;2022-10-22T12:35:32;9.70;;;3.83;;
38089;SDS011;23904;52.322;10.232;2022-10-22T12:38:13;6.82;;;2.63;;
38089;SDS011;23904;52.322;10.232;2022-10-22T12:40:41;10.20;;;2.55;;
38089;SDS011;23904;52.322;10.232;2022-10-22T12:43:11;9.77;;;3.35;;
38089;SDS011;23904;52.322;10.232;2022-10-22T12:45:41;9.20;;;2.73;;
38089;SDS011;23904;52.322;10.232;2022-10-22T12:48:29;9.60;;;2.85;;
38089;SDS011;23904;52.322;10.232;2022-10-22T12:50:59;7.80;;;2.40;;
38089;SDS011;23904;52.322;10.232;2022-10-22T12:56:00;6.43;;;2.20;;
38089;SDS011;23904;52.322;10.232;2022-10-22T12:58:31;12.93;;;2.55;;
38089;SDS011;23904;52.322;10.232;2022-10-22T13:01:05;9.02;;;2.70;;
38089;SDS011;23904;52.322;10.232;2022-10-22T13:03:35;7.15;;;2.42;;
38089;SDS011;23904;52.322;10.232;2022-10-22T13:08:43;12.68;;;2.67;;
38089;SDS011;23904;52.322;10.232;2022-10-22T13:11:52;8.15;;;2.40;;
38089;SDS011;23904;52.322;10.232;2022-10-22T13:14:29;9.15;;;2.85;;
38089;SDS011;23904;52.322;10.232;2022-10-22T13:20:00;9.85;;;3.15;;
38089;SDS011;23904;52.322;10.232;2022-10-22T13:22:41;7.38;;;2.35;;
38089;SDS011;23904;52.322;10.232;2022-10-22T13:28:27;6.15;;;2.30;;
38089;SDS011;23904;52.322;10.232;2022-10-22T13:30:58;7.65;;;2.45;;
38089;SDS011;23904;52.322;10.232;2022-10-22T13:33:42;6.97;;;2.83;;
38089;SDS011;23904;52.322;10.232;2022-10-22T13:36:11;10.98;;;2.50;;
38089;SDS011;23904;52.322;10.232;2022-10-22T13:38:40;8.88;;;3.30;;
38089;SDS011;23904;52.322;10.232;2022-10-22T13:44:02;7.18;;;2.38;;
38089;SDS011;23904;52.322;10.232;2022-10-22T13:46:28;7.18;;;2.50;;
38089;SDS011;23904;52.322;10.232;2022-10-22T13:48:55;10.60;;;3.15;;
38089;SDS011;23904;52.322;10.232;2022-10-22T13:51:24;9.57;;;2.75;;
38089;SDS011;23904;52.322;10.232;2022-10-22T13:53:58;6.57;;;2.33;;
38089;SDS011;23904;52.322;10.232;2022-10-22T13:56:25;7.13;;;1.90;;
38089;SDS011;23904;52.322;10.232;2022-10-22T13:58:51;7.72;;;2.22;;
38089;SDS011;23904;52.322;10.232;2022-10-22T14:03:51;11.20;;;2.28;;
38089;SDS011;23904;52.322;10.232;2022-10-22T14:06:21;5.93;;;1.65;;
38089;SDS011;23904;52.322;10.232;2022-10-22T14:08:48;11.90;;;2.10;;
38089;SDS011;23904;52.322;10.232;2022-10-22T14:11:22;8.68;;;1.90;;
38089;SDS011;23904;52.322;10.232;2022-10-22T14:13:51;13.75;;;2.90;;
38089;SDS011;23904;52.322;10.232;2022-10-22T14:16:23;8.57;;;2.15;;
38089;SDS011;23904;52.322;10.232;2022-10-22T14:18:52;7.55;;;1.88;;
38089;SDS011;23904;52.322;10.232;2022-10-22T14:21:19;12.25;;;2.22;;
38089;SDS011;23904;52.322;10.232;2022-10-22T14:23:46;7.88;;;1.95;;
38089;SDS011;23904;52.322;10.232;2022-10-22T14:26:17;9.43;;;2.35;;
38089;SDS011;23904;52.322;10.232;2022-10-22T14:28:52;10.38;;;1.90;;
38089;SDS011;23904;52.322;10.232;2022-10-22T14:31:18;7.63;;;1.95;;
38089;SDS011;23904;52.322;10.232;2022-10-22T14:33:46;8.77;;;2.30;;
38089;SDS011;23904;52.322;10.232;2022-10-22T14:36:14;12.50;;;3.80;;
38089;SDS011;23904;52.322;10.232;2022-10-22T14:38:42;9.02;;;2.53;;
38089;SDS011;23904;52.322;10.232;2022-10-22T14:41:28;6.70;;;2.28;;
38089;SDS011;23904;52.322;10.232;2022-10-22T14:43:54;11.55;;;2.88;;
38089;SDS011;23904;52.322;10.232;2022-10-22T14:46:20;9.13;;;2.35;;
38089;SDS011;23904;52.322;10.232;2022-10-22T14:48:46;13.25;;;2.40;;
38089;SDS011;23904;52.322;10.232;2022-10-22T14:51:13;11.93;;;2.80;;
38089;SDS011;23904;52.322;10.232;2022-10-22T14:53:41;7.43;;;2.55;;
38089;SDS011;23904;52.322;10.232;2022-10-22T14:56:09;7.63;;;2.55;;
38089;SDS011;23904;52.322;10.232;2022-10-22T14:58:36;9.52;;;2.08;;
38089;SDS011;23904;52.322;10.232;2022-10-22T15:01:03;10.38;;;2.63;;
38089;SDS011;23904;52.322;10.232;2022-10-22T15:03:29;11.00;;;3.28;;
38089;SDS011;23904;52.322;10.232;2022-10-22T15:05:55;22.15;;;2.53;;
38089;SDS011;23904;52.322;10.232;2022-10-22T15:08:21;12.35;;;4.03;;
38089;SDS011;23904;52.322;10.232;2022-10-22T15:11:09;6.25;;;2.30;;
38089;SDS011;23904;52.322;10.232;2022-10-22T15:13:36;10.70;;;2.25;;
38089;SDS011;23904;52.322;10.232;2022-10-22T15:16:07;11.88;;;3.10;;
38089;SDS011;23904;52.322;10.232;2022-10-22T15:18:34;10.73;;;3.33;;
38089;SDS011;23904;52.322;10.232;2022-10-22T15:21:02;15.43;;;3.85;;
38089;SDS011;23904;52.322;10.232;2022-10-22T15:23:31;11.63;;;3.20;;
38089;SDS011;23904;52.322;10.232;2022-10-22T15:25:57;8.85;;;2.90;;
38089;SDS011;23904;52.322;10.232;2022-10-22T15:28:22;8.35;;;3.25;;
38089;SDS011;23904;52.322;10.232;2022-10-22T15:30:56;12.73;;;3.42;;
38089;SDS011;23904;52.322;10.232;2022-10-22T15:33:23;8.10;;;3.45;;
38089;SDS011;23904;52.322;10.232;2022-10-22T15:35:50;10.32;;;3.17;;
38089;SDS011;23904;52.322;10.232;2022-10-22T15:38:16;8.15;;;3.65;;
38089;SDS011;23904;52.322;10.232;2022-10-22T15:40:42;12.80;;;3.95;;
38089;SDS011;23904;52.322;10.232;2022-10-22T15:43:08;10.18;;;3.22;;
38089;SDS011;23904;52.322;10.232;2022-10-22T15:45:34;11.95;;;3.70;;
38089;SDS011;23904;52.322;10.232;2022-10-22T15:48:00;11.13;;;3.55;;
38089;SDS011;23904;52.322;10.232;2022-10-22T15:50:25;9.43;;;4.20;;
38089;SDS011;23904;52.322;10.232;2022-10-22T15:52:51;11.07;;;3.50;;
38089;SDS011;23904;52.322;10.232;2022-10-22T15:55:18;8.02;;;3.70;;
38089;SDS011;23904;52.322;10.232;2022-10-22T15:57:45;10.27;;;3.92;;
38089;SDS011;23904;52.322;10.232;2022-10-22T16:00:10;15.38;;;4.05;;
38089;SDS011;23904;52.322;10.232;2022-10-22T16:02:37;12.07;;;5.18;;
38089;SDS011;23904;52.322;10.232;2022-10-22T16:05:03;14.85;;;4.20;;
38089;SDS011;23904;52.322;10.232;2022-10-22T16:07:29;9.93;;;4.40;;
38089;SDS011;23904;52.322;10.232;2022-10-22T16:09:55;11.65;;;3.58;;
38089;SDS011;23904;52.322;10.232;2022-10-22T16:12:22;15.85;;;4.10;;
38089;SDS011;23904;52.322;10.232;2022-10-22T16:14:51;11.88;;;4.30;;
38089;SDS011;23904;52.322;10.232;2022-10-22T16:17:17;12.07;;;3.72;;
38089;SDS011;23904;52.322;10.232;2022-10-22T16:19:46;12.45;;;4.80;;
38089;SDS011;23904;52.322;10.232;2022-10-22T16:22:12;11.25;;;4.18;;
38089;SDS011;23904;52.322;10.232;2022-10-22T16:24:41;9.00;;;4.32;;
38089;SDS011;23904;52.322;10.232;2022-10-22T16:27:07;12.00;;;5.30;;
38089;SDS011;23904;52.322;10.232;2022-10-22T16:29:35;9.50;;;4.20;;
38089;SDS011;23904;52.322;10.232;2022-10-22T16:32:02;9.40;;;4.03;;
38089;SDS011;23904;52.322;10.232;2022-10-22T16:34:28;9.73;;;4.22;;
38089;SDS011;23904;52.322;10.232;2022-10-22T16:36:54;11.07;;;3.88;;
38089;SDS011;23904;52.322;10.232;2022-10-22T16:39:20;17.83;;;4.40;;
38089;SDS011;23904;52.322;10.232;2022-10-22T16:41:47;15.57;;;5.28;;
38089;SDS011;23904;52.322;10.232;2022-10-22T16:44:13;10.20;;;4.03;;
38089;SDS011;23904;52.322;10.232;2022-10-22T16:46:38;11.75;;;3.90;;
38089;SDS011;23904;52.322;10.232;2022-10-22T16:49:04;10.02;;;4.78;;
38089;SDS011;23904;52.322;10.232;2022-10-22T16:51:31;10.30;;;4.30;;
38089;SDS011;23904;52.322;10.232;2022-10-22T16:53:57;11.75;;;4.32;;